createdAt,value
2018-03-16T00:00:07.653Z,4.50
2018-03-16T00:02:09.264Z,4.50
2018-03-16T00:04:10.322Z,4.40
2018-03-16T00:06:11.279Z,4.50
2018-03-16T00:08:12.248Z,4.50
2018-03-16T00:10:13.203Z,4.50
2018-03-16T00:12:16.419Z,4.50
2018-03-16T00:14:17.398Z,4.50
2018-03-16T00:16:18.352Z,4.40
2018-03-16T00:18:19.308Z,4.40
2018-03-16T00:20:20.262Z,4.40
2018-03-16T00:22:33.642Z,4.40
2018-03-16T00:24:34.644Z,4.40
2018-03-16T00:26:35.649Z,4.40
2018-03-16T00:28:36.591Z,4.40
2018-03-16T00:30:37.588Z,4.40
2018-03-16T00:32:38.579Z,4.40
2018-03-16T00:34:39.614Z,4.40
2018-03-16T00:36:40.776Z,4.40
2018-03-16T00:38:42.419Z,4.40
2018-03-16T00:40:44.278Z,4.40
2018-03-16T00:42:46.192Z,4.40
2018-03-16T00:44:47.204Z,4.40
2018-03-16T00:46:48.238Z,4.30
2018-03-16T00:48:49.939Z,4.30
2018-03-16T00:50:50.895Z,4.30
2018-03-16T00:52:51.834Z,4.40
2018-03-16T00:54:52.788Z,4.30
2018-03-16T00:56:53.840Z,4.40
2018-03-16T00:58:54.848Z,4.40
2018-03-16T01:00:56.560Z,4.40
2018-03-16T01:02:57.511Z,4.40
2018-03-16T01:04:58.476Z,4.40
2018-03-16T01:06:59.576Z,4.30
2018-03-16T01:09:00.523Z,4.30
2018-03-16T01:11:01.567Z,4.30
2018-03-16T01:13:02.566Z,4.40
2018-03-16T01:15:03.548Z,4.30
2018-03-16T01:17:04.732Z,4.30
2018-03-16T01:19:05.666Z,4.30
2018-03-16T01:21:06.759Z,4.30
2018-03-16T01:23:07.743Z,4.30
2018-03-16T01:25:08.780Z,4.30
2018-03-16T01:27:09.722Z,4.30
2018-03-16T01:29:12.049Z,4.30
2018-03-16T01:31:13.038Z,4.30
2018-03-16T01:33:14.804Z,4.30
2018-03-16T01:35:16.527Z,4.30
2018-03-16T01:37:17.484Z,4.20
2018-03-16T01:39:19.201Z,4.30
2018-03-16T01:41:20.213Z,4.30
2018-03-16T01:43:21.221Z,4.20
2018-03-16T01:45:22.171Z,4.20
2018-03-16T01:47:23.130Z,4.20
2018-03-16T01:49:24.090Z,4.20
2018-03-16T01:51:25.033Z,4.10
2018-03-16T01:53:25.975Z,4.10
2018-03-16T01:55:27.051Z,4.20
2018-03-16T01:57:28.870Z,4.20
2018-03-16T01:59:29.921Z,4.10
2018-03-16T02:01:30.896Z,4.10
2018-03-16T02:03:31.866Z,4.10
2018-03-16T02:05:32.816Z,4.10
2018-03-16T02:07:33.766Z,4.10
2018-03-16T02:09:34.706Z,4.10
2018-03-16T02:11:35.683Z,4.10
2018-03-16T02:13:37.083Z,4.10
2018-03-16T02:15:38.903Z,4.00
2018-03-16T02:17:39.866Z,4.00
2018-03-16T02:19:41.071Z,4.10
2018-03-16T02:21:42.023Z,4.10
2018-03-16T02:23:43.015Z,4.00
2018-03-16T02:25:43.983Z,4.10
2018-03-16T02:27:46.049Z,4.00
2018-03-16T02:29:47.025Z,4.00
2018-03-16T02:31:48.046Z,3.90
2018-03-16T02:33:49.978Z,3.90
2018-03-16T02:35:50.981Z,3.90
2018-03-16T02:37:52.115Z,3.90
2018-03-16T02:39:53.975Z,3.80
2018-03-16T02:41:57.735Z,3.80
2018-03-16T02:44:04.210Z,3.90
2018-03-16T02:46:12.288Z,3.80
2018-03-16T02:48:14.424Z,3.80
2018-03-16T02:50:15.388Z,3.80
2018-03-16T02:52:16.572Z,3.90
2018-03-16T02:54:18.708Z,3.80
2018-03-16T02:56:20.461Z,3.80
2018-03-16T02:58:21.394Z,3.80
2018-03-16T03:00:22.372Z,3.80
2018-03-16T03:02:23.352Z,3.80
2018-03-16T03:04:24.295Z,3.70
2018-03-16T03:06:25.274Z,3.70
2018-03-16T03:08:26.234Z,3.70
2018-03-16T03:10:27.245Z,3.80
2018-03-16T03:12:28.252Z,3.80
2018-03-16T03:14:29.208Z,3.70
2018-03-16T03:16:30.999Z,3.70
2018-03-16T03:18:31.952Z,3.70
2018-03-16T03:20:34.079Z,3.70
2018-03-16T03:22:35.087Z,3.70
2018-03-16T03:24:36.056Z,3.70
2018-03-16T03:26:37.096Z,3.60
2018-03-16T03:28:38.063Z,3.60
2018-03-16T03:30:39.015Z,3.60
2018-03-16T03:32:39.994Z,3.60
2018-03-16T03:34:40.943Z,3.60
2018-03-16T03:36:42.504Z,3.50
2018-03-16T03:38:43.475Z,3.60
2018-03-16T03:40:44.495Z,3.50
2018-03-16T03:42:45.502Z,3.60
2018-03-16T03:44:46.456Z,3.50
2018-03-16T03:46:48.535Z,3.50
2018-03-16T03:48:49.486Z,3.60
2018-03-16T03:50:51.214Z,3.60
2018-03-16T03:52:52.232Z,3.60
2018-03-16T03:54:53.280Z,3.50
2018-03-16T03:56:54.268Z,3.50
2018-03-16T03:58:55.246Z,3.40
2018-03-16T04:00:56.940Z,3.50
2018-03-16T04:02:58.234Z,3.40
2018-03-16T04:04:59.521Z,3.40
2018-03-16T04:07:00.476Z,3.40
2018-03-16T04:09:02.536Z,3.30
2018-03-16T04:11:03.597Z,3.40
2018-03-16T04:13:04.577Z,3.40
2018-03-16T04:15:05.643Z,3.40
2018-03-16T04:17:07.391Z,3.40
2018-03-16T04:19:08.368Z,3.40
2018-03-16T04:21:10.084Z,3.40
2018-03-16T04:23:11.179Z,3.30
2018-03-16T04:25:12.187Z,3.30
2018-03-16T04:27:13.256Z,3.30
2018-03-16T04:29:14.201Z,3.30
2018-03-16T04:31:15.201Z,3.30
2018-03-16T04:33:16.296Z,3.30
2018-03-16T04:35:17.517Z,3.30
2018-03-16T04:37:18.615Z,3.30
2018-03-16T04:39:20.350Z,3.30
2018-03-16T04:41:21.428Z,3.30
2018-03-16T04:43:22.399Z,3.30
2018-03-16T04:45:23.446Z,3.30
2018-03-16T04:47:24.478Z,3.30
2018-03-16T04:49:26.321Z,3.20
2018-03-16T04:51:27.270Z,3.20
2018-03-16T04:53:28.335Z,3.20
2018-03-16T04:55:30.212Z,3.20
2018-03-16T04:57:31.166Z,3.20
2018-03-16T04:59:32.122Z,3.20
2018-03-16T05:01:33.231Z,3.20
2018-03-16T05:03:34.187Z,3.20
2018-03-16T05:05:35.915Z,3.20
2018-03-16T05:07:36.868Z,3.20
2018-03-16T05:09:37.819Z,3.20
2018-03-16T05:11:38.775Z,3.20
2018-03-16T05:13:40.793Z,3.20
2018-03-16T05:15:41.855Z,3.20
2018-03-16T05:17:43.487Z,3.20
2018-03-16T05:19:44.467Z,3.20
2018-03-16T05:21:45.427Z,3.30
2018-03-16T05:23:46.424Z,3.20
2018-03-16T05:25:47.389Z,3.20
2018-03-16T05:27:48.332Z,3.20
2018-03-16T05:29:49.299Z,3.20
2018-03-16T05:31:50.294Z,3.10
2018-03-16T05:33:52.032Z,3.20
2018-03-16T05:35:53.881Z,3.20
2018-03-16T05:37:54.853Z,3.10
2018-03-16T05:39:55.778Z,3.20
2018-03-16T05:41:56.738Z,3.10
2018-03-16T05:43:57.730Z,3.10
2018-03-16T05:45:58.850Z,3.00
2018-03-16T05:48:00.546Z,3.10
2018-03-16T05:50:01.537Z,3.10
2018-03-16T05:52:02.491Z,3.10
2018-03-16T05:54:03.492Z,3.10
2018-03-16T05:56:04.390Z,3.00
2018-03-16T05:58:05.376Z,3.00
2018-03-16T06:00:06.358Z,3.00
2018-03-16T06:02:07.324Z,3.00
2018-03-16T06:04:08.284Z,3.00
2018-03-16T06:06:10.024Z,2.90
2018-03-16T06:08:10.974Z,2.90
2018-03-16T06:10:12.029Z,2.90
2018-03-16T06:12:13.001Z,2.90
2018-03-16T06:14:14.710Z,2.90
2018-03-16T06:16:15.738Z,2.90
2018-03-16T06:18:16.707Z,2.90
2018-03-16T06:20:17.674Z,2.80
2018-03-16T06:22:18.623Z,2.80
2018-03-16T06:24:19.615Z,2.80
2018-03-16T06:26:20.602Z,2.70
2018-03-16T06:28:21.676Z,2.80
2018-03-16T06:30:23.455Z,2.80
2018-03-16T06:32:24.409Z,2.80
2018-03-16T06:34:25.486Z,2.70
2018-03-16T06:36:26.470Z,2.80
2018-03-16T06:38:28.155Z,2.70
2018-03-16T06:40:29.830Z,2.60
2018-03-16T06:42:30.875Z,2.60
2018-03-16T06:44:31.876Z,2.70
2018-03-16T06:46:32.789Z,2.70
2018-03-16T06:48:33.805Z,2.70
2018-03-16T06:50:34.790Z,2.70
2018-03-16T06:52:35.788Z,2.70
2018-03-16T06:54:36.750Z,2.70
2018-03-16T06:56:38.427Z,2.60
2018-03-16T06:58:39.407Z,2.60
2018-03-16T07:00:40.350Z,2.70
2018-03-16T07:02:41.330Z,2.60
2018-03-16T07:04:44.055Z,2.60
2018-03-16T07:06:45.030Z,2.60
2018-03-16T07:08:46.027Z,2.60
2018-03-16T07:10:47.004Z,2.60
2018-03-16T07:12:47.947Z,2.60
2018-03-16T07:14:48.939Z,2.60
2018-03-16T07:16:49.961Z,2.60
2018-03-16T07:18:51.028Z,2.60
2018-03-16T07:20:52.096Z,2.50
2018-03-16T07:22:53.806Z,2.60
2018-03-16T07:24:54.791Z,2.60
2018-03-16T07:26:55.728Z,2.60
2018-03-16T07:28:57.253Z,2.60
2018-03-16T07:30:58.226Z,2.50
2018-03-16T07:32:59.151Z,2.50
2018-03-16T07:35:00.090Z,2.50
2018-03-16T07:37:01.079Z,2.50
2018-03-16T07:39:02.155Z,2.50
2018-03-16T07:41:03.161Z,2.50
2018-03-16T07:43:04.142Z,2.50
2018-03-16T07:45:05.819Z,2.40
2018-03-16T07:47:06.743Z,2.40
2018-03-16T07:49:08.430Z,2.40
2018-03-16T07:51:09.375Z,2.40
2018-03-16T07:53:10.371Z,2.40
2018-03-16T07:55:11.395Z,2.40
2018-03-16T07:57:12.354Z,2.40
2018-03-16T07:59:13.287Z,2.30
2018-03-16T08:01:14.241Z,2.30
2018-03-16T08:03:15.340Z,2.20
2018-03-16T08:05:17.100Z,2.20
2018-03-16T08:07:18.064Z,2.20
2018-03-16T08:09:19.123Z,2.30
2018-03-16T08:11:20.195Z,2.30
2018-03-16T08:13:21.212Z,2.30
2018-03-16T08:15:22.620Z,2.30
2018-03-16T08:17:23.619Z,2.30
2018-03-16T08:19:24.679Z,2.20
2018-03-16T08:21:25.619Z,2.20
2018-03-16T08:23:26.559Z,2.00
2018-03-16T08:25:28.255Z,2.10
2018-03-16T08:27:29.297Z,2.10
2018-03-16T08:29:31.132Z,2.00
2018-03-16T08:31:32.888Z,2.10
2018-03-16T08:33:33.847Z,2.00
2018-03-16T08:35:34.783Z,2.00
2018-03-16T08:37:35.743Z,2.00
2018-03-16T08:39:36.715Z,2.00
2018-03-16T08:41:37.673Z,2.00
2018-03-16T08:43:38.611Z,2.10
2018-03-16T08:45:39.625Z,2.10
2018-03-16T08:47:40.560Z,2.10
2018-03-16T08:49:41.501Z,2.20
2018-03-16T08:51:42.666Z,2.00
2018-03-16T08:53:43.681Z,2.00
2018-03-16T08:55:45.400Z,2.00
2018-03-16T08:57:46.370Z,2.00
2018-03-16T08:59:47.338Z,2.00
2018-03-16T09:01:48.331Z,1.90
2018-03-16T09:03:49.294Z,2.00
2018-03-16T09:05:50.226Z,1.90
2018-03-16T09:07:51.206Z,2.00
2018-03-16T09:09:52.148Z,1.90
2018-03-16T09:11:53.840Z,1.90
2018-03-16T09:13:54.842Z,1.90
2018-03-16T09:15:55.803Z,1.90
2018-03-16T09:17:56.760Z,1.90
2018-03-16T09:19:57.742Z,1.80
2018-03-16T09:21:58.686Z,1.80
2018-03-16T09:23:59.624Z,1.70
2018-03-16T09:26:00.566Z,1.70
2018-03-16T09:28:01.520Z,1.70
2018-03-16T09:30:02.522Z,1.70
2018-03-16T09:32:04.226Z,1.60
2018-03-16T09:34:05.206Z,1.60
2018-03-16T09:36:06.148Z,1.60
2018-03-16T09:38:07.133Z,1.50
2018-03-16T09:40:08.218Z,1.60
2018-03-16T09:42:09.272Z,1.70
2018-03-16T09:44:10.322Z,1.70
2018-03-16T09:46:11.282Z,1.60
2018-03-16T09:48:12.243Z,1.60
2018-03-16T09:50:13.179Z,1.50
2018-03-16T09:52:14.143Z,1.60
2018-03-16T09:54:15.159Z,1.60
2018-03-16T09:56:16.176Z,1.60
2018-03-16T09:58:17.123Z,1.60
2018-03-16T10:00:18.055Z,1.50
2018-03-16T10:02:19.755Z,1.20
2018-03-16T10:04:20.719Z,1.20
2018-03-16T10:06:21.678Z,1.50
2018-03-16T10:08:22.623Z,1.40
2018-03-16T10:10:23.542Z,1.50
2018-03-16T10:12:24.536Z,1.40
2018-03-16T10:14:26.234Z,1.40
2018-03-16T10:16:27.209Z,1.40
2018-03-16T10:18:29.188Z,1.40
2018-03-16T10:20:30.147Z,1.40
2018-03-16T10:22:31.080Z,1.40
2018-03-16T10:24:32.103Z,1.30
2018-03-16T10:26:34.375Z,1.50
2018-03-16T10:28:35.460Z,1.60
2018-03-16T10:30:36.422Z,1.60
2018-03-16T10:32:38.098Z,1.50
2018-03-16T10:34:39.139Z,1.50
2018-03-16T10:36:40.831Z,1.70
2018-03-16T10:38:42.079Z,1.70
2018-03-16T10:40:43.031Z,1.50
2018-03-16T10:42:44.251Z,1.60
2018-03-16T10:44:45.991Z,1.90
2018-03-16T10:46:46.944Z,1.90
2018-03-16T10:48:47.987Z,1.80
2018-03-16T10:50:49.007Z,1.90
2018-03-16T10:52:49.961Z,2.00
2018-03-16T10:54:50.923Z,2.10
2018-03-16T10:56:51.980Z,1.90
2018-03-16T10:58:52.946Z,2.10
2018-03-16T11:00:58.591Z,2.00
2018-03-16T11:03:06.381Z,2.00
2018-03-16T11:05:13.842Z,2.00
2018-03-16T11:07:17.636Z,2.00
2018-03-16T11:09:18.646Z,2.20
2018-03-16T11:11:19.571Z,2.20
2018-03-16T11:13:20.547Z,2.10
2018-03-16T11:15:22.223Z,2.00
2018-03-16T11:17:23.212Z,2.00
2018-03-16T11:19:24.196Z,2.10
2018-03-16T11:21:25.903Z,1.80
2018-03-16T11:23:27.650Z,2.10
2018-03-16T11:25:28.650Z,2.10
2018-03-16T11:27:29.610Z,2.10
2018-03-16T11:29:30.675Z,2.00
2018-03-16T11:31:32.500Z,2.10
2018-03-16T11:33:33.515Z,2.10
2018-03-16T11:35:34.481Z,2.10
2018-03-16T11:37:35.467Z,2.00
2018-03-16T11:39:36.392Z,1.90
2018-03-16T11:41:37.343Z,2.00
2018-03-16T11:43:38.363Z,1.90
2018-03-16T11:45:39.311Z,1.90
2018-03-16T11:47:40.284Z,1.90
2018-03-16T11:49:41.237Z,1.90
2018-03-16T11:51:42.206Z,2.00
2018-03-16T11:53:44.036Z,2.00
2018-03-16T11:55:45.002Z,2.00
2018-03-16T11:57:46.043Z,2.00
2018-03-16T11:59:47.062Z,1.90
2018-03-16T12:01:48.101Z,2.00
2018-03-16T12:03:49.369Z,1.90
2018-03-16T12:05:50.414Z,1.90
2018-03-16T12:07:51.406Z,1.90
2018-03-16T12:09:53.116Z,2.00
2018-03-16T12:11:54.119Z,2.00
2018-03-16T12:13:55.132Z,1.80
2018-03-16T12:15:56.210Z,1.70
2018-03-16T12:17:58.459Z,1.70
2018-03-16T12:19:59.473Z,1.70
2018-03-16T12:22:00.459Z,1.60
2018-03-16T12:24:01.437Z,1.70
2018-03-16T12:26:02.399Z,1.70
2018-03-16T12:28:03.657Z,1.50
2018-03-16T12:30:04.901Z,1.70
2018-03-16T12:32:05.918Z,1.60
2018-03-16T12:34:07.779Z,1.60
2018-03-16T12:36:08.790Z,1.60
2018-03-16T12:38:09.764Z,1.60
2018-03-16T12:40:10.733Z,1.50
2018-03-16T12:42:12.500Z,1.60
2018-03-16T12:44:13.485Z,1.60
2018-03-16T12:46:14.428Z,1.50
2018-03-16T12:48:15.414Z,1.60
2018-03-16T12:50:16.378Z,1.50
2018-03-16T12:52:18.461Z,1.70
2018-03-16T12:54:19.608Z,1.60
2018-03-16T12:56:20.567Z,1.60
2018-03-16T12:58:21.524Z,1.60
2018-03-16T13:00:22.522Z,1.70
2018-03-16T13:02:23.461Z,1.70
2018-03-16T13:04:24.534Z,1.80
2018-03-16T13:06:25.501Z,1.70
2018-03-16T13:08:26.523Z,1.80
2018-03-16T13:10:28.271Z,1.70
2018-03-16T13:12:29.206Z,1.70
2018-03-16T13:14:30.175Z,1.70
2018-03-16T13:16:31.888Z,1.60
2018-03-16T13:18:32.860Z,1.60
2018-03-16T13:20:33.838Z,1.50
2018-03-16T13:22:35.537Z,1.60
2018-03-16T13:24:36.495Z,1.50
2018-03-16T13:26:37.440Z,1.60
2018-03-16T13:28:38.405Z,1.60
2018-03-16T13:30:39.452Z,1.60
2018-03-16T13:32:40.412Z,1.70
2018-03-16T13:34:41.470Z,1.50
2018-03-16T13:36:43.196Z,1.50
2018-03-16T13:38:44.335Z,1.50
2018-03-16T13:40:45.350Z,1.40
2018-03-16T13:42:46.345Z,1.60
2018-03-16T13:44:47.340Z,1.60
2018-03-16T13:46:48.367Z,1.40
2018-03-16T13:48:50.112Z,1.40
2018-03-16T13:50:51.125Z,1.40
2018-03-16T13:52:52.197Z,1.30
2018-03-16T13:54:53.230Z,1.20
2018-03-16T13:56:54.200Z,1.00
2018-03-16T13:58:55.154Z,1.10
2018-03-16T14:00:56.270Z,1.00
2018-03-16T14:02:58.439Z,1.10
2018-03-16T14:04:59.486Z,1.00
2018-03-16T14:07:00.556Z,1.10
2018-03-16T14:09:02.333Z,1.00
2018-03-16T14:11:03.382Z,1.00
2018-03-16T14:13:04.379Z,1.10
2018-03-16T14:15:05.407Z,1.20
2018-03-16T14:17:06.400Z,1.20
2018-03-16T14:19:07.920Z,1.10
2018-03-16T14:21:09.011Z,1.10
2018-03-16T14:23:10.085Z,1.00
2018-03-16T14:25:11.077Z,1.10
2018-03-16T14:27:12.312Z,1.00
2018-03-16T14:29:14.330Z,0.90
2018-03-16T14:31:25.626Z,0.80
2018-03-16T14:33:26.885Z,0.80
2018-03-16T14:35:27.862Z,0.80
2018-03-16T14:37:28.832Z,0.70
2018-03-16T14:39:29.965Z,0.70
2018-03-16T14:41:31.714Z,0.70
2018-03-16T14:43:32.744Z,0.70
2018-03-16T14:45:33.791Z,0.70
2018-03-16T14:47:34.893Z,0.70
2018-03-16T14:49:35.945Z,0.80
2018-03-16T14:51:37.010Z,0.80
2018-03-16T14:53:37.996Z,0.70
2018-03-16T14:55:39.998Z,0.70
2018-03-16T14:57:40.954Z,0.60
2018-03-16T14:59:42.712Z,0.70
2018-03-16T15:01:43.828Z,0.70
2018-03-16T15:03:45.132Z,0.60
2018-03-16T15:05:46.792Z,0.60
2018-03-16T15:07:47.890Z,0.70
2018-03-16T15:09:52.744Z,0.70
2018-03-16T15:11:53.748Z,0.70
2018-03-16T15:13:54.773Z,0.70
2018-03-16T15:15:55.888Z,0.60
2018-03-16T15:17:58.214Z,0.70
2018-03-16T15:19:59.365Z,0.70
2018-03-16T15:22:00.383Z,0.70
2018-03-16T15:25:49.155Z,0.60
2018-03-16T15:27:50.153Z,0.60
2018-03-16T15:29:51.159Z,0.50
2018-03-16T15:31:52.275Z,0.60
2018-03-16T15:33:53.256Z,0.50
2018-03-16T15:35:54.249Z,0.50
2018-03-16T15:37:55.253Z,0.40
2018-03-16T15:39:56.248Z,0.50
2018-03-16T15:41:57.236Z,0.40
2018-03-16T15:43:58.938Z,0.40
2018-03-16T15:45:59.952Z,0.40
2018-03-16T15:48:00.908Z,0.40
2018-03-16T15:50:02.668Z,0.40
2018-03-16T15:52:03.647Z,0.40
2018-03-16T15:54:04.661Z,0.30
2018-03-16T15:56:05.652Z,0.50
2018-03-16T15:58:06.627Z,0.40
2018-03-16T16:00:08.344Z,0.30
2018-03-16T16:02:09.316Z,0.20
2018-03-16T16:04:10.280Z,0.20
2018-03-16T16:06:11.983Z,0.20
2018-03-16T16:08:12.947Z,0.20
2018-03-16T16:10:13.895Z,0.20
2018-03-16T16:12:14.835Z,0.20
2018-03-16T16:14:15.763Z,0.00
2018-03-16T16:16:16.744Z,0.10
2018-03-16T16:18:17.784Z,0.10
2018-03-16T16:20:18.752Z,0.20
2018-03-16T16:22:20.529Z,0.10
2018-03-16T16:24:21.524Z,0.10
2018-03-16T16:26:22.504Z,0.10
2018-03-16T16:28:23.443Z,0.00
2018-03-16T16:30:24.399Z,0.10
2018-03-16T16:32:25.359Z,0.00
2018-03-16T16:34:27.090Z,0.00
2018-03-16T16:36:28.036Z,0.00
2018-03-16T16:38:28.999Z,0.10
2018-03-16T16:40:29.993Z,0.00
2018-03-16T16:42:30.972Z,0.00
2018-03-16T16:44:31.931Z,0.00
2018-03-16T16:46:32.930Z,-0.10
2018-03-16T16:48:33.917Z,-0.10
2018-03-16T16:50:34.899Z,-0.10
2018-03-16T16:52:36.645Z,-0.10
2018-03-16T16:54:38.384Z,-0.10
2018-03-16T16:56:39.346Z,-0.10
2018-03-16T16:58:40.313Z,-0.10
2018-03-16T17:00:42.082Z,-0.20
2018-03-16T17:02:43.880Z,-0.20
2018-03-16T17:04:44.861Z,-0.20
2018-03-16T17:06:45.818Z,-0.20
2018-03-16T17:08:46.776Z,-0.20
2018-03-16T17:10:47.751Z,-0.20
2018-03-16T17:12:48.764Z,-0.30
2018-03-16T17:14:50.468Z,-0.20
2018-03-16T17:16:51.436Z,-0.20
2018-03-16T17:18:52.383Z,-0.30
2018-03-16T17:20:53.373Z,-0.30
2018-03-16T17:22:55.086Z,-0.40
2018-03-16T17:24:56.071Z,-0.40
2018-03-16T17:26:57.046Z,-0.40
2018-03-16T17:28:58.020Z,-0.40
2018-03-16T17:30:58.984Z,-0.40
2018-03-16T17:33:00.039Z,-0.40
2018-03-16T17:35:01.112Z,-0.40
2018-03-16T17:37:02.185Z,-0.50
2018-03-16T17:39:03.144Z,-0.50
2018-03-16T17:41:04.160Z,-0.60
2018-03-16T17:43:05.148Z,-0.60
2018-03-16T17:45:06.104Z,-0.60
2018-03-16T17:47:07.128Z,-0.60
2018-03-16T17:49:08.111Z,-0.60
2018-03-16T17:51:09.043Z,-0.60
2018-03-16T17:53:09.995Z,-0.60
2018-03-16T17:55:10.988Z,-0.60
2018-03-16T17:57:12.745Z,-0.70
2018-03-16T17:59:14.448Z,-0.70
2018-03-16T18:01:15.480Z,-0.70
2018-03-16T18:03:16.459Z,-0.70
2018-03-16T18:05:18.122Z,-0.70
2018-03-16T18:07:19.954Z,-0.80
2018-03-16T18:09:20.939Z,-0.80
2018-03-16T18:11:21.964Z,-0.70
2018-03-16T18:13:22.923Z,-0.80
2018-03-16T18:15:23.963Z,-0.80
2018-03-16T18:17:25.500Z,-0.80
2018-03-16T18:19:26.529Z,-0.90
2018-03-16T18:21:28.228Z,-0.90
2018-03-16T18:23:29.221Z,-0.90
2018-03-16T18:25:30.412Z,-1.00
2018-03-16T18:27:31.471Z,-0.90
2018-03-16T18:29:32.434Z,-0.90
2018-03-16T18:31:33.622Z,-0.90
2018-03-16T18:33:34.694Z,-1.00
2018-03-16T18:35:35.839Z,-0.90
2018-03-16T18:37:36.880Z,-0.90
2018-03-16T18:39:37.848Z,-0.90
2018-03-16T18:41:38.839Z,-0.90
2018-03-16T18:43:39.954Z,-0.90
2018-03-16T18:45:40.919Z,-0.90
2018-03-16T18:47:41.885Z,-0.90
2018-03-16T18:49:42.889Z,-0.80
2018-03-16T18:51:43.852Z,-0.80
2018-03-16T18:53:44.877Z,-0.90
2018-03-16T18:55:45.847Z,-0.90
2018-03-16T18:57:46.944Z,-0.80
2018-03-16T18:59:47.859Z,-0.90
2018-03-16T19:01:48.920Z,-0.80
2018-03-16T19:03:50.703Z,-0.90
2018-03-16T19:05:51.663Z,-0.90
2018-03-16T19:07:53.490Z,-0.90
2018-03-16T19:09:54.465Z,-0.90
2018-03-16T19:11:56.175Z,-0.80
2018-03-16T19:13:57.231Z,-0.80
2018-03-16T19:15:58.242Z,-0.80
2018-03-16T19:17:59.283Z,-0.80
2018-03-16T19:20:00.352Z,-0.80
2018-03-16T19:22:01.597Z,-0.80
2018-03-16T19:24:02.684Z,-0.80
2018-03-16T19:26:03.807Z,-0.80
2018-03-16T19:28:04.815Z,-0.80
2018-03-16T19:30:06.668Z,-0.80
2018-03-16T19:32:07.656Z,-0.80
2018-03-16T19:34:08.615Z,-0.80
2018-03-16T19:36:09.618Z,-0.80
2018-03-16T19:38:11.509Z,-0.80
2018-03-16T19:40:12.542Z,-0.80
2018-03-16T19:42:13.603Z,-0.80
2018-03-16T19:44:14.590Z,-0.80
2018-03-16T19:46:15.536Z,-0.80
2018-03-16T19:48:16.507Z,-0.80
2018-03-16T19:50:17.506Z,-0.80
2018-03-16T19:52:18.580Z,-0.80
2018-03-16T19:54:19.606Z,-0.80
2018-03-16T19:56:21.247Z,-0.80
2018-03-16T19:58:22.448Z,-0.80
2018-03-16T20:00:23.411Z,-0.80
2018-03-16T20:02:24.580Z,-0.80
2018-03-16T20:04:25.634Z,-0.80
2018-03-16T20:06:26.760Z,-0.80
2018-03-16T20:08:28.536Z,-0.80
2018-03-16T20:10:30.271Z,-0.90
2018-03-16T20:12:32.170Z,-0.80
2018-03-16T20:14:33.297Z,-0.90
2018-03-16T20:16:35.550Z,-0.90
2018-03-16T20:18:36.608Z,-0.90
2018-03-16T20:20:37.589Z,-0.90
2018-03-16T20:22:39.284Z,-0.90
2018-03-16T20:24:40.303Z,-0.90
2018-03-16T20:26:41.301Z,-0.80
2018-03-16T20:28:42.299Z,-0.90
2018-03-16T20:30:44.033Z,-1.00
2018-03-16T20:32:45.140Z,-1.00
2018-03-16T20:34:46.154Z,-0.90
2018-03-16T20:36:47.944Z,-1.00
2018-03-16T20:38:48.935Z,-1.00
2018-03-16T20:40:50.787Z,-1.00
2018-03-16T20:42:51.789Z,-1.00
2018-03-16T20:44:53.343Z,-1.00
2018-03-16T20:46:54.426Z,-1.00
2018-03-16T20:48:55.403Z,-1.00
2018-03-16T20:50:56.413Z,-1.10
2018-03-16T20:52:57.380Z,-1.00
2018-03-16T20:54:58.521Z,-1.10
2018-03-16T20:57:01.809Z,-1.00
2018-03-16T20:59:02.876Z,-1.10
2018-03-16T21:01:03.887Z,-1.10
2018-03-16T21:03:08.873Z,-1.10
2018-03-16T21:05:09.985Z,-1.10
2018-03-16T21:07:11.002Z,-1.20
2018-03-16T21:09:13.782Z,-1.30
2018-03-16T21:11:15.119Z,-1.30
2018-03-16T21:13:16.952Z,-1.40
2018-03-16T21:15:17.965Z,-1.40
2018-03-16T21:17:18.940Z,-1.40
2018-03-16T21:19:19.902Z,-1.30
2018-03-16T21:21:21.040Z,-1.30
2018-03-16T21:23:22.043Z,-1.40
2018-03-16T21:25:24.140Z,-1.40
2018-03-16T21:27:25.256Z,-1.40
2018-03-16T21:29:26.256Z,-1.50
2018-03-16T21:31:27.239Z,-1.50
2018-03-16T21:33:28.195Z,-1.40
2018-03-16T21:35:29.168Z,-1.40
2018-03-16T21:37:30.125Z,-1.50
2018-03-16T21:39:31.087Z,-1.50
2018-03-16T21:41:33.118Z,-1.50
2018-03-16T21:43:34.828Z,-1.50
2018-03-16T21:45:35.855Z,-1.50
2018-03-16T21:47:37.553Z,-1.60
2018-03-16T21:49:39.454Z,-1.70
2018-03-16T21:51:40.439Z,-1.70
2018-03-16T21:53:41.398Z,-1.70
2018-03-16T21:55:42.583Z,-1.70
2018-03-16T21:57:43.596Z,-1.70
2018-03-16T21:59:45.431Z,-1.70
2018-03-16T22:01:47.641Z,-1.80
2018-03-16T22:03:48.677Z,-1.80
2018-03-16T22:05:49.655Z,-1.90
2018-03-16T22:07:50.799Z,-1.90
2018-03-16T22:09:51.794Z,-1.80
2018-03-16T22:11:52.985Z,-1.90
2018-03-16T22:13:53.975Z,-1.90
2018-03-16T22:15:56.404Z,-1.80
2018-03-16T22:17:57.473Z,-1.90
2018-03-16T22:19:58.537Z,-1.90
2018-03-16T22:21:59.853Z,-1.80
2018-03-16T22:24:00.912Z,-1.90
2018-03-16T22:26:02.307Z,-1.90
2018-03-16T22:28:04.349Z,-1.80
2018-03-16T22:30:06.296Z,-1.80
2018-03-16T22:32:07.398Z,-1.90
2018-03-16T22:34:08.486Z,-2.00
2018-03-16T22:36:10.975Z,-1.90
2018-03-16T22:38:12.827Z,-2.00
2018-03-16T22:40:13.913Z,-2.00
2018-03-16T22:42:15.490Z,-2.00
2018-03-16T22:44:16.652Z,-2.10
2018-03-16T22:46:17.731Z,-2.10
2018-03-16T22:48:18.805Z,-2.10
2018-03-16T22:50:19.813Z,-2.10
2018-03-16T22:52:21.631Z,-2.00
2018-03-16T22:54:25.011Z,-2.00
2018-03-16T22:56:26.129Z,-2.10
2018-03-16T22:58:27.259Z,-2.10
2018-03-16T23:00:28.340Z,-2.20
2018-03-16T23:02:29.424Z,-2.30
2018-03-16T23:04:30.507Z,-2.20
2018-03-16T23:06:31.493Z,-2.20
2018-03-16T23:08:52.935Z,-2.20
2018-03-16T23:10:54.103Z,-2.30
2018-03-16T23:12:58.480Z,-2.30
2018-03-16T23:14:59.508Z,-2.40
2018-03-16T23:17:00.524Z,-2.40
2018-03-16T23:19:01.508Z,-2.50
2018-03-16T23:21:03.463Z,-2.50
2018-03-16T23:23:05.218Z,-2.50
2018-03-16T23:25:06.236Z,-2.50
2018-03-16T23:27:07.395Z,-2.50
2018-03-16T23:29:08.388Z,-2.40
2018-03-16T23:31:10.313Z,-2.50
2018-03-16T23:33:11.435Z,-2.50
2018-03-16T23:35:12.435Z,-2.60
2018-03-16T23:37:13.403Z,-2.50
2018-03-16T23:39:15.488Z,-2.60
2018-03-16T23:41:18.698Z,-2.60
2018-03-16T23:43:19.710Z,-2.60
2018-03-16T23:45:21.506Z,-2.60
2018-03-16T23:47:24.196Z,-2.70
2018-03-16T23:49:25.207Z,-2.70
2018-03-16T23:51:26.184Z,-2.60
2018-03-16T23:53:27.156Z,-2.70
2018-03-16T23:55:28.204Z,-2.70
2018-03-16T23:57:29.569Z,-2.60
2018-03-16T23:59:30.581Z,-2.60
